CheckWX is a tool to help pilots better visualize weather data.  It is not intended as a substitute for an official pre-flight weather briefing.

02:17:14 UTC

KHCR METAR
Heber City Municipal - Russ McDonald Field Airport
Heber, Utah, USA
Current

22 mins ago

KHCR 190155Z AUTO 10005KT 10SM CLR 14/00 A2990 RMK AO2
Observed
Sep-19 @ 01:55 UTC
Wind
  • 100° at 5 KTS
Visibility
10 SM
Flight Rules
VFR
Cloud Levels
  • Clear skies
Temperature
14°C / 57°F
Dewpoint
C / 32°F
Humidity
39%
Altimeter
29.9" Hg
Pressure
1012.52 hPa
Previous

42 mins ago

KHCR 190135Z AUTO 15003KT 10SM CLR 16/00 A2989 RMK AO2
Observed
Sep-19 @ 01:35 UTC
Wind
  • 150° at 3 KTS
Visibility
10 SM
Flight Rules
VFR
Cloud Levels
  • Clear skies
Temperature
16°C / 61°F
Dewpoint
C / 32°F
Humidity
34%
Altimeter
29.89" Hg
Pressure
1012.22 hPa
Previous

1 hour ago

KHCR 190115Z AUTO 20005KT 10SM CLR 20/M01 A2990 RMK AO2
Observed
Sep-19 @ 01:15 UTC
Wind
  • 200° at 5 KTS
Visibility
10 SM
Flight Rules
VFR
Cloud Levels
  • Clear skies
Temperature
20°C / 68°F
Dewpoint
-1°C / 30°F
Humidity
24%
Altimeter
29.9" Hg
Pressure
1012.52 hPa